Latest Weather Observations for South Channel Island

IDV60801

Issued at 8:02 am EST Friday 29 April 2016 (issued every 30 minutes, with the page automatically refreshed every 10 minutes)

About weather observations | Map of weather stations | Latest weather observations for VIC | Other Formats
Station Details ID: 086344 Name: SOUTH CHANNEL ISLAND Lat: -38.31 Lon: 144.80 Height: 9.0 m
Data from the previous 72 hours. | See also: Recent months for locations in Victoria
Date/Time
EST
Temp
°C
App
Temp
°C
Dew
Point
Rel
Hum
%
Delta-T
°C
Wind Press
QNH
hPa
Press
MSL
hPa
Rain
since 9 am
mm
Dir
 
Spd
km/h
Gust
km/h
Spd
kts
Gust
kts
29/08:00am - - - - - NNW 11 15 6 8 - - -
29/07:30am - - - - - WNW 20 30 11 16 - - -
29/07:00am - - - - - NNW 13 15 7 8 - - -
29/06:30am - - - - - NNW 13 17 7 9 - - -
29/06:00am - - - - - NNW 15 17 8 9 - - -
29/05:30am - - - - - NNE 22 26 12 14 - - -
29/05:00am - - - - - N 28 32 15 17 - - -
29/04:30am - - - - - N 30 33 16 18 - - -
29/04:00am - - - - - N 20 26 11 14 - - -
29/03:30am - - - - - NNE 15 19 8 10 - - -
29/03:00am - - - - - NE 19 20 10 11 - - -
29/02:30am - - - - - NE 15 19 8 10 - - -
29/02:00am - - - - - NNE 13 15 7 8 - - -
29/01:30am - - - - - NNE 13 15 7 8 - - -
29/01:00am - - - - - NNE 22 24 12 13 - - -
29/12:30am - - - - - NNE 20 24 11 13 - - -
29/12:00am - - - - - NE 19 20 10 11 - - -
 
Date/Time
EST
Temp
°C
App
Temp
°C
Dew
Point
Rel
Hum
%
Delta-T
°C
Wind Press
QNH
hPa
Press
MSL
hPa
Rain
since 9 am
mm
Dir
 
Spd
km/h
Gust
km/h
Spd
kts
Gust
kts
28/11:30pm - - - - - NNE 13 15 7 8 - - -
28/11:00pm - - - - - NE 19 20 10 11 - - -
28/10:30pm - - - - - ENE 22 24 12 13 - - -
28/10:00pm - - - - - ENE 20 24 11 13 - - -
28/09:30pm - - - - - E 15 17 8 9 - - -
28/09:00pm - - - - - ESE 7 9 4 5 - - -
28/08:30pm - - - - - SSE 7 9 4 5 - - -
28/08:00pm - - - - - SSW 9 9 5 5 - - -
28/07:30pm - - - - - SSE 9 11 5 6 - - -
28/07:00pm - - - - - S 15 15 8 8 - - -
28/06:30pm - - - - - SW 13 15 7 8 - - -
28/06:00pm - - - - - SW 15 17 8 9 - - -
28/05:30pm - - - - - SSW 9 11 5 6 - - -
28/05:00pm - - - - - NE 2 13 1 7 - - -
28/04:30pm - - - - - NW 6 9 3 5 - - -
28/04:00pm - - - - - N 9 11 5 6 - - -
28/03:30pm - - - - - N 17 19 9 10 - - -
28/03:00pm - - - - - N 15 17 8 9 - - -
28/02:30pm - - - - - NNW 9 19 5 10 - - -
28/02:00pm - - - - - NNW 17 19 9 10 - - -
28/01:30pm - - - - - N 19 24 10 13 - - -
28/01:00pm - - - - - N 22 28 12 15 - - -
28/12:30pm - - - - - NNW 22 35 12 19 - - -
28/12:00pm - - - - - NNE 13 15 7 8 - - -
28/11:30am - - - - - N 13 15 7 8 - - -
28/11:00am - - - - - N 13 15 7 8 - - -
28/10:30am - - - - - NNW 9 11 5 6 - - -
28/10:00am - - - - - NNW 22 28 12 15 - - -
28/09:30am - - - - - NNW 28 32 15 17 - - -
28/09:00am - - - - - N 32 35 17 19 - - -
28/08:30am - - - - - N 32 35 17 19 - - -
28/08:00am - - - - - N 39 46 21 25 - - -
28/07:30am - - - - - N 41 48 22 26 - - -
28/07:00am - - - - - N 43 48 23 26 - - -
28/06:30am - - - - - N 39 44 21 24 - - -
28/06:00am - - - - - N 37 41 20 22 - - -
28/05:30am - - - - - N 39 44 21 24 - - -
28/05:00am - - - - - N 37 43 20 23 - - -
28/04:30am - - - - - N 39 43 21 23 - - -
28/04:00am - - - - - NNE 37 41 20 22 - - -
28/03:30am - - - - - NNE 41 46 22 25 - - -
28/03:00am - - - - - NNE 37 43 20 23 - - -
28/02:30am - - - - - N 35 37 19 20 - - -
28/02:00am - - - - - N 33 37 18 20 - - -
28/01:30am - - - - - N 33 35 18 19 - - -
28/01:00am - - - - - N 32 33 17 18 - - -
28/12:30am - - - - - N 32 33 17 18 - - -
28/12:00am - - - - - N 32 35 17 19 - - -
 
Date/Time
EST
Temp
°C
App
Temp
°C
Dew
Point
Rel
Hum
%
Delta-T
°C
Wind Press
QNH
hPa
Press
MSL
hPa
Rain
since 9 am
mm
Dir
 
Spd
km/h
Gust
km/h
Spd
kts
Gust
kts
27/11:30pm - - - - - N 39 46 21 25 - - -
27/11:00pm - - - - - N 43 50 23 27 - - -
27/10:30pm - - - - - N 43 48 23 26 - - -
27/10:00pm - - - - - N 43 48 23 26 - - -
27/09:30pm - - - - - N 39 44 21 24 - - -
27/09:00pm - - - - - N 39 43 21 23 - - -
27/08:30pm - - - - - N 37 41 20 22 - - -
27/08:00pm - - - - - NNE 33 37 18 20 - - -
27/07:30pm - - - - - NNE 37 41 20 22 - - -
27/07:00pm - - - - - NNE 39 46 21 25 - - -
27/06:30pm - - - - - NNE 41 46 22 25 - - -
27/06:00pm - - - - - NNE 43 48 23 26 - - -
27/05:30pm - - - - - NNE 43 50 23 27 - - -
27/05:00pm - - - - - NNE 43 50 23 27 - - -
27/04:30pm - - - - - N 46 54 25 29 - - -
27/04:00pm - - - - - N 44 52 24 28 - - -
27/03:30pm - - - - - N 43 52 23 28 - - -
27/03:00pm - - - - - N 39 46 21 25 - - -
27/02:30pm - - - - - N 39 43 21 23 - - -
27/02:00pm - - - - - N 41 46 22 25 - - -
27/01:30pm - - - - - N 44 52 24 28 - - -
27/01:00pm - - - - - N 41 46 22 25 - - -
27/12:30pm - - - - - N 50 56 27 30 - - -
27/12:00pm - - - - - N 50 57 27 31 - - -
27/11:30am - - - - - N 46 54 25 29 - - -
27/11:00am - - - - - NNE 50 57 27 31 - - -
27/10:30am - - - - - NNE 52 61 28 33 - - -
27/10:00am - - - - - N 54 63 29 34 - - -
27/09:30am - - - - - N 52 59 28 32 - - -
27/09:00am - - - - - N 48 56 26 30 - - -
27/08:30am - - - - - N 54 65 29 35 - - -
27/08:00am - - - - - N 56 69 30 37 - - -
27/07:30am - - - - - N 56 65 30 35 - - -
27/07:00am - - - - - N 54 61 29 33 - - -
27/06:30am - - - - - N 50 57 27 31 - - -
27/06:27am - - - - - N 48 57 26 31 - - -
27/06:00am - - - - - N 33 39 18 21 - - -
27/05:30am - - - - - N 28 33 15 18 - - -
27/05:00am - - - - - NNE 24 30 13 16 - - -
27/04:30am - - - - - NNE 26 32 14 17 - - -
27/04:00am - - - - - NNE 22 28 12 15 - - -
27/03:30am - - - - - NNE 28 32 15 17 - - -
27/03:00am - - - - - NNE 30 35 16 19 - - -
27/02:30am - - - - - NNE 26 32 14 17 - - -
27/02:00am - - - - - NNE 20 26 11 14 - - -
27/01:30am - - - - - NNE 22 26 12 14 - - -
27/01:00am - - - - - NNE 24 28 13 15 - - -
27/12:30am - - - - - NNE 22 24 12 13 - - -
27/12:00am - - - - - NNE 19 24 10 13 - - -
 
Date/Time
EST
Temp
°C
App
Temp
°C
Dew
Point
Rel
Hum
%
Delta-T
°C
Wind Press
QNH
hPa
Press
MSL
hPa
Rain
since 9 am
mm
Dir
 
Spd
km/h
Gust
km/h
Spd
kts
Gust
kts
26/11:30pm - - - - - NNE 15 17 8 9 - - -
26/11:00pm - - - - - NE 19 20 10 11 - - -
26/10:30pm - - - - - NE 20 24 11 13 - - -
26/10:00pm - - - - - NE 26 28 14 15 - - -
26/09:30pm - - - - - NNE 30 32 16 17 - - -
26/09:00pm - - - - - NE 28 32 15 17 - - -
26/08:30pm - - - - - NE 26 28 14 15 - - -
26/08:00pm - - - - - NNE 30 32 16 17 - - -
26/07:30pm - - - - - NNE 30 32 16 17 - - -
26/07:00pm - - - - - NNE 32 33 17 18 - - -
26/06:30pm - - - - - NNE 32 35 17 19 - - -
26/06:00pm - - - - - NNE 30 32 16 17 - - -
26/05:30pm - - - - - NNE 33 35 18 19 - - -
26/05:00pm - - - - - NNE 32 33 17 18 - - -
26/04:30pm - - - - - NNE 32 33 17 18 - - -
26/04:00pm - - - - - NE 28 30 15 16 - - -
26/03:30pm - - - - - NE 24 30 13 16 - - -
26/03:00pm - - - - - NE 20 26 11 14 - - -
26/02:30pm - - - - - NE 20 22 11 12 - - -
26/02:00pm - - - - - NNE 28 30 15 16 - - -
26/01:30pm - - - - - NNE 33 37 18 20 - - -
26/01:00pm - - - - - NNE 28 30 15 16 - - -
26/12:30pm - - - - - N 32 35 17 19 - - -
26/12:00pm - - - - - NNE 30 33 16 18 - - -
26/11:30am - - - - - N 32 39 17 21 - - -
26/11:00am - - - - - N 32 37 17 20 - - -
26/10:30am - - - - - N 41 46 22 25 - - -
26/10:00am - - - - - N 35 41 19 22 - - -
26/09:30am - - - - - N 39 44 21 24 - - -
26/09:00am - - - - - N 39 46 21 25 - - -
26/08:30am - - - - - NNE 37 43 20 23 - - -

Other Formats:

Comma delimited format used in spreadsheet applications
http://www.bom.gov.au/fwo/IDV60801/IDV60801.94853.axf

JavaScript Object Notation format (JSON) in row-major order
http://www.bom.gov.au/fwo/IDV60801/IDV60801.94853.json